Expeditions — WDB6455 — position and weather

sailwx.info

Track history (hours):
 
Tides and Currents Weather Stations Pressure Air Temp Water Temp Dewpoint Dewpoint Depression Visibility Wind Speed Wind Dir Waves Ship Positions

Expeditions

Owner: Expeditions NW, Inc., Port Angeles, WA. More information available from US FCC via Universal Licensing System and Coast Guard Vessel Documentation Center.

Last reported at 2018-Jul-13 04:51 UTC. Time now 2018-Jul-15 20:34 UTC.
Position N 32°42' W 117°09'.

Length 30 m; draft 2 m.

MMSI: 366053000.

Date/timePositionNaut miles runAvg speedWind from/ knotsBaromVisibWave heightAir tempDewpointWater temp
2018-Jul-13 04:51N 32°42' W 117°09'410.8
2018-Jul-13 04:30N 32°43' W 117°13'5 9.9
2018-Jul-13 03:59N 32°39' W 117°18'2 4.8
2018-Jul-13 03:30N 32°38' W 117°15'  
2018-Jul-06 16:26N 32°42' W 117°09'3 6.8
2018-Jul-06 15:59N 32°43' W 117°12'2 2.1
2018-Jul-06 14:53N 32°42' W 117°10'1 0.3
2018-Jul-06 12:34N 32°42' W 117°09'  
2018-Jul-03 21:07N 32°38' W 117°18'0 0.1
2018-Jul-03 21:00N 32°38' W 117°18'0 0.2
2018-Jul-03 19:25N 32°38' W 117°17'  
Track history (hours):
 
Tides and Currents Weather Stations Pressure Air Temp Water Temp Dewpoint Dewpoint Depression Visibility Wind Speed Wind Dir Waves Ship Positions

Expeditions

Owner: Expeditions NW, Inc., Port Angeles, WA. More information available from US FCC via Universal Licensing System and Coast Guard Vessel Documentation Center.

Last reported at 2018-Jul-13 04:51 UTC. Time now 2018-Jul-15 20:34 UTC.
Position N 32°42' W 117°09'.

Length 30 m; draft 2 m.

MMSI: 366053000.

Date/timePositionNaut miles runAvg speedWind from/ knotsBaromVisibWave heightAir tempDewpointWater temp
2018-Jul-13 04:51N 32°42' W 117°09'410.8
2018-Jul-13 04:30N 32°43' W 117°13'5 9.9
2018-Jul-13 03:59N 32°39' W 117°18'2 4.8
2018-Jul-13 03:30N 32°38' W 117°15'  
2018-Jul-06 16:26N 32°42' W 117°09'3 6.8
2018-Jul-06 15:59N 32°43' W 117°12'2 2.1
2018-Jul-06 14:53N 32°42' W 117°10'1 0.3
2018-Jul-06 12:34N 32°42' W 117°09'  
2018-Jul-03 21:07N 32°38' W 117°18'0 0.1
2018-Jul-03 21:00N 32°38' W 117°18'0 0.2
2018-Jul-03 19:25N 32°38' W 117°17'  

Dump ship's entire track history